METAR Torp

ENTO 230520Z 32005KT CAVOK 14/11 Q1017 NOSIG

METAR Gardermoen

ENGM 230520Z 36005KT 9999 FEW030 BKN085 13/10 Q1017 NOSIG

Webcam Kjeller